Time;durP1;ratioP1;P1;durP2;ratioP2;P2;SDS_P1;SDS_P2;PMS_P1;PMS_P2;Temp;Humidity;BMP_temperature;BMP_pressure;BME280_temperature;BME280_humidity;BME280_pressure;Samples;Min_cycle;Max_cycle;Signal;HPM_P1;HPM_P2
2021/01/04 00:00:29;;;;;;;15.82;6.00;;;2.40;99.90;;;;;;5052212;28;20112;-54
2021/01/04 00:03:19;;;;;;;13.80;4.60;;;2.40;99.90;;;;;;5052304;28;20056;-58
2021/01/04 00:05:58;;;;;;;14.15;5.07;;;2.40;99.90;;;;;;5053517;28;20108;-56
2021/01/04 00:08:44;;;;;;;14.73;5.13;;;2.30;99.90;;;;;;5048465;28;20021;-53
2021/01/04 00:11:23;;;;;;;14.95;5.15;;;2.30;99.90;;;;;;5043765;28;20064;-55
2021/01/04 00:14:12;;;;;;;15.13;6.10;;;2.30;99.90;;;;;;5037025;28;20035;-54
2021/01/04 00:16:52;;;;;;;15.65;6.30;;;2.30;99.90;;;;;;5042680;28;20025;-53
2021/01/04 00:19:29;;;;;;;15.38;5.65;;;2.30;99.90;;;;;;5041634;28;20021;-56
2021/01/04 00:22:13;;;;;;;16.25;6.15;;;2.40;99.90;;;;;;5043962;28;20032;-56
2021/01/04 00:24:48;;;;;;;15.07;5.57;;;2.30;99.90;;;;;;5059264;28;20025;-56
2021/01/04 00:38:08;;;;;;;16.10;5.80;;;2.30;99.90;;;;;;5041520;28;20024;-54
2021/01/04 00:40:54;;;;;;;15.60;5.43;;;2.30;99.90;;;;;;5057271;28;20036;-56
2021/01/04 00:43:33;;;;;;;15.73;5.22;;;2.30;99.90;;;;;;5043331;28;20401;-57
2021/01/04 00:45:59;;;;;;;15.95;5.50;;;2.30;99.90;;;;;;5042846;28;20496;-53
2021/01/04 00:48:41;;;;;;;16.50;5.63;;;2.30;99.90;;;;;;5040692;28;20025;-53
2021/01/04 00:51:16;;;;;;;16.10;5.68;;;2.20;99.90;;;;;;5056733;28;20033;-53
2021/01/04 00:53:47;;;;;;;16.42;5.65;;;2.30;99.90;;;;;;5041408;28;20358;-56
2021/01/04 00:56:38;;;;;;;14.77;5.13;;;2.30;99.90;;;;;;5031118;28;20103;-56
2021/01/04 00:59:10;;;;;;;15.88;5.43;;;2.30;99.90;;;;;;5032198;28;20021;-55
2021/01/04 01:01:44;;;;;;;15.82;5.97;;;2.20;99.90;;;;;;4337785;28;10000699;-58
2021/01/04 01:04:30;;;;;;;16.40;5.90;;;2.20;99.90;;;;;;5067479;28;20031;-55
2021/01/04 01:07:31;;;;;;;14.65;5.30;;;2.20;99.90;;;;;;5051341;28;20060;-58
2021/01/04 01:09:57;;;;;;;14.82;5.05;;;2.20;99.90;;;;;;4993983;28;20038;-53
2021/01/04 01:12:45;;;;;;;16.38;5.78;;;2.20;99.90;;;;;;5044511;28;20037;-52
2021/01/04 01:15:20;;;;;;;16.90;6.70;;;2.20;99.90;;;;;;5068760;28;20045;-57
2021/01/04 01:17:54;;;;;;;14.70;5.80;;;2.10;99.90;;;;;;5068781;28;20037;-57
2021/01/04 01:20:22;;;;;;;15.63;5.80;;;2.10;99.90;;;;;;5054310;28;20035;-53
2021/01/04 01:22:48;;;;;;;18.00;6.90;;;2.20;99.90;;;;;;5071088;28;20021;-52
2021/01/04 01:25:25;;;;;;;16.70;6.25;;;2.20;99.90;;;;;;5053189;28;20037;-57
2021/01/04 01:28:28;;;;;;;15.88;6.18;;;2.20;99.90;;;;;;5052621;28;20438;-53
2021/01/04 01:31:15;;;;;;;17.63;7.00;;;2.20;99.90;;;;;;5068072;28;20112;-52
2021/01/04 01:33:46;;;;;;;17.02;6.10;;;2.20;99.90;;;;;;5052853;28;20025;-57
2021/01/04 01:36:34;;;;;;;16.85;6.05;;;2.10;99.90;;;;;;5052774;28;20341;-50
2021/01/04 01:39:37;;;;;;;16.38;6.47;;;2.20;99.90;;;;;;5067564;28;20021;-54
2021/01/04 01:42:37;;;;;;;17.73;6.60;;;2.20;99.90;;;;;;5068055;28;20033;-55
2021/01/04 01:45:18;;;;;;;17.80;5.95;;;2.20;99.90;;;;;;5068164;28;20025;-51
2021/01/04 01:47:50;;;;;;;16.65;5.55;;;2.20;99.90;;;;;;5052781;28;20521;-56
2021/01/04 01:50:27;;;;;;;19.10;7.28;;;2.20;99.90;;;;;;5051668;28;20057;-55
2021/01/04 01:53:02;;;;;;;17.33;6.90;;;2.20;99.90;;;;;;5067863;28;20047;-52
2021/01/04 01:55:34;;;;;;;17.73;6.85;;;2.20;99.90;;;;;;5067228;28;20021;-54
2021/01/04 01:58:05;;;;;;;17.83;7.07;;;2.20;99.90;;;;;;5050503;28;20032;-56
2021/01/04 02:00:48;;;;;;;16.55;6.40;;;2.20;99.90;;;;;;5067073;28;20032;-55
2021/01/04 02:03:37;;;;;;;17.63;6.43;;;2.20;99.90;;;;;;5067317;28;20531;-57
2021/01/04 02:06:24;;;;;;;18.20;6.85;;;2.20;99.90;;;;;;5054213;28;20033;-55
2021/01/04 02:09:00;;;;;;;17.83;6.97;;;2.10;99.90;;;;;;5051291;28;20060;-57
2021/01/04 02:11:38;;;;;;;18.10;7.70;;;2.10;99.90;;;;;;5059393;28;20028;-58
2021/01/04 02:14:12;;;;;;;17.65;6.95;;;2.10;99.90;;;;;;5072008;28;20024;-58
2021/01/04 02:17:05;;;;;;;19.45;7.75;;;2.10;99.90;;;;;;5072027;28;20024;-58
2021/01/04 02:20:12;;;;;;;17.15;6.60;;;2.10;99.90;;;;;;5071182;28;20433;-55
2021/01/04 02:22:52;;;;;;;17.65;7.32;;;2.10;99.90;;;;;;5070533;28;20032;-52
2021/01/04 02:25:18;;;;;;;17.45;7.38;;;2.20;99.90;;;;;;5070564;28;20082;-56
2021/01/04 02:27:53;;;;;;;18.95;7.72;;;2.20;99.90;;;;;;5066041;28;20331;-54
2021/01/04 02:30:19;;;;;;;18.23;7.57;;;2.10;99.90;;;;;;5051227;28;20146;-55
2021/01/04 02:32:46;;;;;;;19.17;7.85;;;2.10;99.90;;;;;;5056559;28;20085;-57
2021/01/04 02:35:12;;;;;;;19.10;8.20;;;2.10;99.90;;;;;;5054902;28;20021;-55
2021/01/04 02:37:38;;;;;;;16.65;7.25;;;2.10;99.90;;;;;;5068811;28;20283;-55
2021/01/04 02:40:07;;;;;;;18.20;7.30;;;2.10;99.90;;;;;;5062285;28;20142;-54
2021/01/04 02:42:50;;;;;;;19.52;7.30;;;2.20;99.90;;;;;;5050296;28;20396;-56
2021/01/04 02:46:34;;;;;;;;;;;;;;;;;;;;;
2021/01/04 02:49:16;;;;;;;18.75;7.50;;;2.10;99.90;;;;;;5042713;28;20496;-55
2021/01/04 02:52:17;;;;;;;19.27;6.80;;;2.20;99.90;;;;;;5031469;28;20465;-57
2021/01/04 02:55:51;;;;;;;;;;;;;;;;;;;;;
2021/01/04 02:59:23;;;;;;;;;;;;;;;;;;;;;
2021/01/04 03:02:44;;;;;;;17.35;7.00;;;2.30;99.90;;;;;;4972811;28;20648;-52
2021/01/04 03:05:38;;;;;;;17.52;6.68;;;2.30;99.90;;;;;;4975411;28;20034;-56
2021/01/04 03:22:27;;;;;;;16.75;6.07;;;2.30;99.90;;;;;;4787428;29;20031;-58
2021/01/04 03:24:53;;;;;;;18.75;6.93;;;2.30;99.90;;;;;;4918129;28;20085;-56
2021/01/04 03:27:24;;;;;;;16.38;6.28;;;2.30;99.90;;;;;;5042739;28;20396;-58
2021/01/04 03:29:50;;;;;;;16.85;6.13;;;2.30;99.90;;;;;;5049419;28;20025;-57
2021/01/04 03:32:16;;;;;;;16.92;6.70;;;2.30;99.90;;;;;;5051489;28;20028;-55
2021/01/04 03:34:42;;;;;;;16.55;7.13;;;2.30;99.90;;;;;;5054832;28;20074;-54
2021/01/04 03:37:08;;;;;;;15.70;6.00;;;2.30;99.90;;;;;;5070014;28;20021;-58
2021/01/04 03:39:36;;;;;;;16.98;6.28;;;2.30;99.90;;;;;;5070899;28;20388;-58
2021/01/04 03:42:02;;;;;;;17.05;6.43;;;2.30;99.90;;;;;;5070268;28;20395;-57
2021/01/04 03:44:29;;;;;;;16.33;6.38;;;2.30;99.90;;;;;;5071102;28;20027;-55
2021/01/04 03:46:57;;;;;;;16.40;6.30;;;2.30;99.90;;;;;;5069868;28;20032;-56
2021/01/04 03:49:23;;;;;;;;;;;2.30;99.90;;;;;;5068592;28;20435;-56
2021/01/04 03:51:53;;;;;;;17.63;6.55;;;2.20;99.90;;;;;;5064840;28;20386;-56
2021/01/04 03:54:18;;;;;;;17.13;6.30;;;2.30;99.90;;;;;;5063755;28;20081;-56
2021/01/04 03:56:44;;;;;;;17.75;6.82;;;2.30;99.90;;;;;;5074052;28;20115;-55
2021/01/04 03:59:12;;;;;;;16.90;7.22;;;2.30;99.90;;;;;;5071243;28;20028;-57
2021/01/04 04:01:52;;;;;;;18.02;7.40;;;2.20;99.90;;;;;;5057818;28;20388;-55
2021/01/04 04:05:03;;;;;;;18.75;7.63;;;2.20;99.90;;;;;;5071030;28;20024;-53
2021/01/04 04:42:08;;;;;;;19.40;7.60;;;2.00;99.90;;;;;;5151920;27;20108;-57
2021/01/04 04:44:36;;;;;;;17.48;7.03;;;2.00;99.90;;;;;;5150938;27;20023;-56
2021/01/04 04:47:14;;;;;;;;;;;2.00;99.90;;;;;;5151085;27;20031;-55
2021/01/04 04:50:21;;;;;;;17.23;7.10;;;2.00;99.90;;;;;;5131599;27;19979;-53
2021/01/04 04:53:17;;;;;;;18.05;7.75;;;2.00;99.90;;;;;;5121767;27;20042;-56
2021/01/04 04:56:06;;;;;;;19.95;8.23;;;2.00;99.90;;;;;;5111182;28;20035;-53
2021/01/04 05:00:03;;;;;;;;;;;;;;;;;;;;;
2021/01/04 05:03:11;;;;;;;;;;;;;;;;;;;;;
2021/01/04 05:25:05;;;;;;;;;;;;;;;;;;;;;
2021/01/04 05:31:16;;;;;;;18.63;8.15;;;1.90;99.90;;;;;;4764654;30;20043;-54
2021/01/04 05:34:24;;;;;;;19.70;8.30;;;1.90;99.90;;;;;;4799254;29;20366;-53
2021/01/04 05:37:39;;;;;;;18.10;7.18;;;1.90;99.90;;;;;;4921483;28;20025;-57
2021/01/04 05:40:35;;;;;;;18.58;7.82;;;2.00;99.90;;;;;;5097054;27;20099;-52
2021/01/04 05:43:48;;;;;;;;;;;;;;;;;;;;;
2021/01/04 05:47:05;;;;;;;18.52;7.50;;;1.90;99.90;;;;;;5135349;27;20158;-53
2021/01/04 05:50:06;;;;;;;17.02;7.07;;;1.90;99.90;;;;;;5030721;28;20044;-58
2021/01/04 05:53:10;;;;;;;17.85;7.30;;;2.20;99.90;;;;;;5031188;28;20393;-55
2021/01/04 05:57:30;;;;;;;18.73;7.35;;;2.40;99.90;;;;;;5031614;28;20540;-54
2021/01/04 06:45:32;;;;;;;19.25;8.38;;;1.80;99.90;;;;;;4938143;28;20031;-51
2021/01/04 06:48:13;;;;;;;19.25;9.02;;;1.80;99.90;;;;;;4969496;28;20032;-55
2021/01/04 06:51:12;;;;;;;17.95;8.15;;;1.90;99.90;;;;;;5004593;28;20056;-55
2021/01/04 06:53:56;;;;;;;20.00;8.38;;;1.90;99.90;;;;;;5082910;28;20033;-56
2021/01/04 06:56:33;;;;;;;18.85;8.50;;;1.90;99.90;;;;;;5051324;28;20025;-53
2021/01/04 06:59:34;;;;;;;19.95;9.10;;;1.90;99.90;;;;;;5056156;28;20307;-54
2021/01/04 07:02:39;;;;;;;19.52;8.40;;;1.90;99.90;;;;;;5047206;28;20484;-53
2021/01/04 07:05:14;;;;;;;19.92;8.38;;;1.90;99.90;;;;;;5048380;28;20025;-54
2021/01/04 07:07:48;;;;;;;19.52;8.35;;;1.90;99.90;;;;;;5048295;28;20029;-53
2021/01/04 07:10:33;;;;;;;18.20;8.00;;;1.90;99.90;;;;;;5059229;28;20570;-55
2021/01/04 07:13:43;;;;;;;18.92;8.88;;;1.90;99.90;;;;;;5068322;28;20387;-57
2021/01/04 07:16:15;;;;;;;19.10;8.75;;;1.90;99.90;;;;;;5055705;28;20500;-54
2021/01/04 07:19:16;;;;;;;18.70;8.48;;;1.90;99.90;;;;;;5067234;28;20048;-57
2021/01/04 07:21:50;;;;;;;21.63;9.15;;;1.80;99.90;;;;;;5045195;28;20036;-51
2021/01/04 07:24:27;;;;;;;19.88;9.10;;;1.70;99.90;;;;;;5053716;28;20067;-54
2021/01/04 07:27:20;;;;;;;20.83;9.18;;;1.70;99.90;;;;;;5057457;28;20029;-54
2021/01/04 07:30:14;;;;;;;20.90;9.43;;;1.80;99.90;;;;;;5045904;28;20053;-53
2021/01/04 07:33:04;;;;;;;21.10;9.52;;;1.80;99.90;;;;;;5048058;28;20025;-50
2021/01/04 07:35:37;;;;;;;19.85;9.05;;;1.90;99.90;;;;;;5066063;28;20074;-53
2021/01/04 07:38:21;;;;;;;20.90;9.23;;;1.80;99.90;;;;;;5083080;28;20032;-57
2021/01/04 07:41:18;;;;;;;18.40;8.60;;;1.80;99.90;;;;;;5067361;28;20017;-53
2021/01/04 07:44:21;;;;;;;19.20;8.10;;;1.90;99.90;;;;;;5061627;28;20072;-55
2021/01/04 07:47:26;;;;;;;20.35;7.85;;;1.90;99.90;;;;;;5043532;28;20035;-55
2021/01/04 07:50:04;;;;;;;20.50;8.75;;;1.90;99.90;;;;;;5034878;28;20065;-54
2021/01/04 07:52:36;;;;;;;19.20;8.20;;;1.90;99.90;;;;;;5054053;28;20033;-53
2021/01/04 07:55:27;;;;;;;18.75;8.23;;;1.90;99.90;;;;;;5053890;28;20025;-55
2021/01/04 07:58:13;;;;;;;17.83;8.38;;;1.90;99.90;;;;;;5047955;28;20021;-57
2021/01/04 08:04:40;;;;;;;18.50;7.75;;;1.90;99.90;;;;;;5017865;28;20028;-55
2021/01/04 08:07:43;;;;;;;19.20;8.07;;;2.00;99.90;;;;;;5042167;28;20544;-52
2021/01/04 08:10:25;;;;;;;19.35;8.05;;;1.80;99.90;;;;;;5038289;28;20457;-57
2021/01/04 08:13:14;;;;;;;18.85;8.07;;;1.90;99.90;;;;;;5046932;28;20025;-55
2021/01/04 08:15:40;;;;;;;19.17;8.27;;;1.90;99.90;;;;;;5051383;28;20047;-52
2021/01/04 08:18:15;;;;;;;18.70;8.20;;;2.00;99.90;;;;;;5033486;28;20021;-55
2021/01/04 08:20:49;;;;;;;18.25;7.68;;;2.00;99.90;;;;;;5031606;28;20397;-54
2021/01/04 08:23:52;;;;;;;18.38;7.57;;;2.10;99.90;;;;;;5033272;28;20069;-58
2021/01/04 08:26:38;;;;;;;19.52;7.60;;;2.10;99.90;;;;;;5034672;28;20504;-52
2021/01/04 08:29:11;;;;;;;19.77;8.68;;;2.10;99.90;;;;;;5040981;28;20038;-55
2021/01/04 08:32:02;;;;;;;20.20;9.50;;;2.20;99.90;;;;;;5033315;28;20400;-56
2021/01/04 08:34:38;;;;;;;18.63;7.57;;;2.20;99.90;;;;;;5031992;28;20025;-55
2021/01/04 08:37:03;;;;;;;18.20;7.00;;;2.30;99.90;;;;;;5032870;28;20030;-53
2021/01/04 08:39:36;;;;;;;17.65;7.20;;;2.30;99.90;;;;;;5037688;28;20024;-56
2021/01/04 08:42:04;;;;;;;18.90;7.75;;;2.30;99.90;;;;;;5053286;28;20021;-56
2021/01/04 08:44:32;;;;;;;20.10;8.88;;;2.30;99.90;;;;;;5053088;28;20056;-55
2021/01/04 08:47:25;;;;;;;20.67;7.07;;;2.30;99.90;;;;;;5052710;28;20060;-54
2021/01/04 08:50:11;;;;;;;23.98;9.75;;;2.30;99.90;;;;;;5048917;28;20721;-56
2021/01/04 08:52:45;;;;;;;21.38;7.60;;;2.30;99.90;;;;;;5048611;28;20053;-54
2021/01/04 08:55:23;;;;;;;21.20;8.10;;;2.40;99.90;;;;;;5045871;28;20034;-55
2021/01/04 08:57:50;;;;;;;18.95;7.95;;;2.40;99.90;;;;;;5043306;28;20017;-53
2021/01/04 09:00:20;;;;;;;20.77;8.23;;;2.40;99.90;;;;;;5049650;28;20395;-55
2021/01/04 09:02:46;;;;;;;20.88;8.60;;;2.50;99.90;;;;;;5052568;28;20024;-51
2021/01/04 09:05:14;;;;;;;19.02;6.93;;;2.60;99.90;;;;;;5052563;28;20025;-54
2021/01/04 09:07:52;;;;;;;17.20;6.93;;;2.60;99.90;;;;;;5052293;28;20017;-52
2021/01/04 09:10:26;;;;;;;20.77;8.32;;;2.60;99.90;;;;;;5050740;28;20025;-55
2021/01/04 09:13:05;;;;;;;19.92;7.68;;;2.70;99.90;;;;;;5052842;28;20013;-55
2021/01/04 09:15:31;;;;;;;19.10;7.85;;;2.80;99.90;;;;;;5052473;28;20396;-53
2021/01/04 09:18:22;;;;;;;19.30;7.45;;;2.80;99.90;;;;;;5052354;28;20029;-57
2021/01/04 09:20:53;;;;;;;23.05;8.95;;;2.90;99.90;;;;;;5052554;28;20055;-55
2021/01/04 09:23:19;;;;;;;24.83;9.50;;;3.00;99.90;;;;;;5051106;28;20024;-57
2021/01/04 09:26:08;;;;;;;23.10;8.82;;;3.00;99.90;;;;;;5051046;28;20480;-57
2021/01/04 09:28:52;;;;;;;27.95;9.63;;;3.10;99.90;;;;;;5044791;28;20553;-55
2021/01/04 09:31:20;;;;;;;21.05;8.23;;;3.10;99.90;;;;;;5045920;28;20036;-56
2021/01/04 09:33:49;;;;;;;23.13;8.30;;;3.10;99.90;;;;;;5049027;28;20021;-55
2021/01/04 09:36:19;;;;;;;21.23;8.05;;;3.10;99.90;;;;;;5047992;28;20033;-56
2021/01/04 09:38:45;;;;;;;21.95;8.18;;;3.20;99.90;;;;;;5038405;28;20022;-57
2021/01/04 09:41:12;;;;;;;19.08;7.53;;;3.20;99.90;;;;;;5030751;28;20032;-53
2021/01/04 09:43:39;;;;;;;19.85;7.82;;;3.20;99.90;;;;;;5030589;28;20026;-58
2021/01/04 09:46:40;;;;;;;17.27;7.18;;;3.20;99.90;;;;;;5031914;28;20449;-55
2021/01/04 09:49:26;;;;;;;18.30;7.00;;;3.20;99.90;;;;;;5020895;28;20191;-55
2021/01/04 09:52:23;;;;;;;18.48;7.82;;;3.10;99.90;;;;;;5031807;28;20053;-57
2021/01/04 09:55:06;;;;;;;21.38;8.93;;;3.10;99.90;;;;;;5029168;28;20120;-54
2021/01/04 09:57:35;;;;;;;20.75;7.50;;;3.10;99.90;;;;;;5037649;28;20048;-58
2021/01/04 10:00:10;;;;;;;18.63;7.35;;;3.10;99.90;;;;;;5049990;28;20025;-58
2021/01/04 10:02:36;;;;;;;16.75;6.65;;;3.20;99.90;;;;;;5051439;28;20392;-56
2021/01/04 10:05:08;;;;;;;18.77;7.40;;;3.20;99.90;;;;;;5033728;28;20123;-59
2021/01/04 10:07:34;;;;;;;17.02;6.60;;;3.20;99.90;;;;;;5051380;28;20029;-58
2021/01/04 10:10:00;;;;;;;17.45;6.97;;;3.30;99.90;;;;;;5050910;28;20477;-59
2021/01/04 10:12:28;;;;;;;18.55;7.13;;;3.20;99.90;;;;;;5051464;28;20025;-51
2021/01/04 10:14:57;;;;;;;17.38;6.95;;;3.20;99.90;;;;;;5051596;28;20024;-58
2021/01/04 10:17:28;;;;;;;18.48;7.25;;;3.20;99.90;;;;;;5051075;28;20017;-59
2021/01/04 10:20:06;;;;;;;17.50;7.15;;;3.20;99.90;;;;;;5050551;28;20047;-57
2021/01/04 10:22:37;;;;;;;14.63;5.95;;;3.20;99.90;;;;;;5051784;28;20024;-58
2021/01/04 10:25:22;;;;;;;16.73;6.30;;;3.10;99.90;;;;;;5051669;28;20554;-58
2021/01/04 10:27:58;;;;;;;16.48;5.97;;;3.00;99.90;;;;;;5051687;28;20021;-60
2021/01/04 10:30:26;;;;;;;15.52;5.65;;;3.00;99.90;;;;;;5049884;28;20466;-57
2021/01/04 10:33:02;;;;;;;15.63;5.87;;;3.10;99.90;;;;;;5049553;28;20024;-54
2021/01/04 10:35:28;;;;;;;15.77;5.97;;;3.10;99.90;;;;;;5050675;28;20506;-56
2021/01/04 10:38:02;;;;;;;15.32;5.68;;;3.10;99.90;;;;;;5051052;28;20033;-57
2021/01/04 10:40:27;;;;;;;16.48;5.80;;;3.10;99.90;;;;;;5050170;28;20060;-57
2021/01/04 10:43:02;;;;;;;14.95;5.60;;;3.10;99.90;;;;;;5049836;28;20124;-56
2021/01/04 10:45:37;;;;;;;15.82;5.70;;;3.10;99.90;;;;;;5049989;28;20082;-53
2021/01/04 10:48:13;;;;;;;15.52;5.78;;;3.10;99.90;;;;;;5042104;28;20060;-58
2021/01/04 10:50:47;;;;;;;16.17;6.38;;;3.10;99.90;;;;;;5049317;28;20108;-60
2021/01/04 10:53:26;;;;;;;16.00;5.68;;;3.20;99.90;;;;;;5051137;28;20112;-55
2021/01/04 10:56:17;;;;;;;18.80;6.43;;;3.20;99.90;;;;;;5050581;28;20029;-54
2021/01/04 10:59:08;;;;;;;16.58;6.32;;;3.20;99.90;;;;;;5050208;28;20494;-55
2021/01/04 11:01:37;;;;;;;16.85;5.82;;;3.30;99.90;;;;;;5050202;28;20480;-59
2021/01/04 11:04:16;;;;;;;16.83;6.95;;;3.20;99.90;;;;;;5051004;28;20108;-50
2021/01/04 11:06:45;;;;;;;15.45;6.38;;;3.20;99.90;;;;;;5050628;28;20033;-52
2021/01/04 11:09:24;;;;;;;17.48;6.90;;;3.30;99.90;;;;;;5050454;28;20021;-50
2021/01/04 11:12:02;;;;;;;15.30;6.30;;;3.30;99.90;;;;;;5049751;28;20032;-56
2021/01/04 11:14:29;;;;;;;16.42;6.28;;;3.30;99.90;;;;;;5050715;28;20419;-58
2021/01/04 11:17:07;;;;;;;16.00;5.95;;;3.40;99.90;;;;;;5050395;28;20029;-55
2021/01/04 11:19:35;;;;;;;15.85;6.47;;;3.40;99.90;;;;;;5049289;28;20036;-60
2021/01/04 11:22:26;;;;;;;14.88;5.63;;;3.30;99.90;;;;;;5044010;28;20025;-52
2021/01/04 11:24:53;;;;;;;15.40;5.85;;;3.30;99.90;;;;;;5054708;28;20017;-55
2021/01/04 11:27:20;;;;;;;15.52;5.93;;;3.30;99.90;;;;;;5053322;28;20028;-58
2021/01/04 11:29:46;;;;;;;15.73;5.70;;;3.30;99.90;;;;;;5053871;28;20083;-54
2021/01/04 11:32:13;;;;;;;15.13;5.80;;;3.30;99.90;;;;;;5054655;28;20393;-57
2021/01/04 11:34:44;;;;;;;17.30;6.03;;;3.30;99.90;;;;;;5054641;28;20031;-55
2021/01/04 11:37:11;;;;;;;16.05;5.85;;;3.40;99.90;;;;;;5054503;28;20524;-57
2021/01/04 11:39:37;;;;;;;15.60;5.80;;;3.40;99.90;;;;;;5052408;28;20051;-56
2021/01/04 11:42:05;;;;;;;14.85;6.25;;;3.40;99.90;;;;;;5054337;28;20116;-55
2021/01/04 11:44:30;;;;;;;13.95;5.63;;;3.50;99.90;;;;;;5052813;28;20499;-54
2021/01/04 11:46:56;;;;;;;14.02;5.65;;;3.40;99.90;;;;;;5054176;28;20108;-56
2021/01/04 11:49:22;;;;;;;15.65;6.05;;;3.50;99.90;;;;;;5052561;28;20081;-57
2021/01/04 11:51:52;;;;;;;15.43;5.97;;;3.40;99.90;;;;;;5054246;28;20025;-50
2021/01/04 11:54:18;;;;;;;14.25;5.88;;;3.50;99.90;;;;;;5054040;28;20021;-54
2021/01/04 11:56:44;;;;;;;14.38;5.55;;;3.50;99.90;;;;;;5054027;28;20067;-57
2021/01/04 11:59:10;;;;;;;15.27;5.25;;;3.50;99.90;;;;;;5053307;28;20036;-57
2021/01/04 12:01:36;;;;;;;15.30;6.00;;;3.50;99.90;;;;;;5052693;28;20442;-54
2021/01/04 12:04:04;;;;;;;14.40;5.72;;;3.60;99.90;;;;;;5054221;28;20108;-51
2021/01/04 12:06:30;;;;;;;13.95;5.15;;;3.60;99.90;;;;;;5052272;28;20111;-59
2021/01/04 12:08:55;;;;;;;14.70;5.60;;;3.70;99.90;;;;;;5047197;28;20055;-53
2021/01/04 12:11:21;;;;;;;12.95;4.97;;;3.80;99.90;;;;;;5036362;28;20029;-55
2021/01/04 12:13:48;;;;;;;14.45;5.68;;;3.80;99.90;;;;;;5052449;28;20056;-57
2021/01/04 12:16:14;;;;;;;11.95;4.93;;;3.90;99.90;;;;;;5052085;28;20032;-58
2021/01/04 12:18:40;;;;;;;14.55;5.63;;;3.80;99.90;;;;;;5033267;28;20025;-56
2021/01/04 12:21:06;;;;;;;16.38;5.53;;;3.80;99.90;;;;;;5034280;28;20075;-57
2021/01/04 12:23:32;;;;;;;14.30;5.25;;;3.80;99.90;;;;;;5033751;28;20018;-55
2021/01/04 12:25:57;;;;;;;14.77;6.13;;;3.90;99.90;;;;;;5041083;28;20035;-56
2021/01/04 12:28:23;;;;;;;14.07;5.88;;;3.80;99.90;;;;;;5051482;28;20463;-56
2021/01/04 12:30:49;;;;;;;14.70;6.25;;;3.80;99.90;;;;;;5052041;28;20029;-53
2021/01/04 12:33:15;;;;;;;15.35;6.05;;;3.70;99.90;;;;;;5051589;28;20383;-57
2021/01/04 12:35:41;;;;;;;14.98;5.28;;;3.60;99.90;;;;;;5053924;28;20025;-57
2021/01/04 12:38:07;;;;;;;14.88;5.85;;;3.60;99.90;;;;;;5052724;28;20027;-64
2021/01/04 12:40:34;;;;;;;14.63;5.32;;;3.60;99.90;;;;;;5046025;28;20101;-69
2021/01/04 12:43:03;;;;;;;13.15;5.10;;;3.60;99.90;;;;;;5048804;28;20025;-57
2021/01/04 12:45:30;;;;;;;15.02;5.82;;;3.60;99.90;;;;;;5051353;28;20055;-58
2021/01/04 12:47:56;;;;;;;14.40;5.70;;;3.60;99.90;;;;;;5043773;28;20036;-56
2021/01/04 12:50:22;;;;;;;16.58;5.80;;;3.60;99.90;;;;;;5051305;28;20060;-60
2021/01/04 12:52:49;;;;;;;13.70;5.78;;;3.60;99.90;;;;;;5052920;28;20064;-57
2021/01/04 12:55:17;;;;;;;14.73;5.90;;;3.70;99.90;;;;;;5039794;28;20034;-59
2021/01/04 12:57:46;;;;;;;14.18;5.50;;;3.70;99.90;;;;;;5037316;28;20025;-61
2021/01/04 13:00:13;;;;;;;14.20;5.00;;;3.70;99.90;;;;;;5052114;28;20025;-60
2021/01/04 13:02:39;;;;;;;13.75;5.43;;;3.70;99.90;;;;;;5052415;28;20028;-53
2021/01/04 13:05:07;;;;;;;15.75;5.68;;;3.70;99.90;;;;;;5052357;28;20488;-60
2021/01/04 13:07:33;;;;;;;13.43;5.45;;;3.70;99.90;;;;;;5052291;28;20025;-57
2021/01/04 13:09:59;;;;;;;13.93;4.90;;;3.60;99.90;;;;;;5047510;28;20479;-54
2021/01/04 13:12:25;;;;;;;14.88;5.80;;;3.60;99.90;;;;;;5032536;28;20032;-61
2021/01/04 13:14:50;;;;;;;13.77;5.35;;;3.80;99.90;;;;;;5032400;28;20338;-60
2021/01/04 13:17:16;;;;;;;12.27;4.80;;;3.80;99.90;;;;;;5050714;28;20025;-57
2021/01/04 13:19:42;;;;;;;13.32;5.03;;;3.70;99.90;;;;;;5046337;28;20053;-58
2021/01/04 13:22:08;;;;;;;13.90;5.07;;;3.80;99.90;;;;;;5032178;28;20023;-58
2021/01/04 13:24:33;;;;;;;14.45;5.03;;;3.80;99.90;;;;;;5032140;28;20048;-59
2021/01/04 13:26:59;;;;;;;13.05;4.90;;;3.70;99.90;;;;;;5031894;28;20029;-53
2021/01/04 13:29:27;;;;;;;11.15;4.10;;;3.80;99.90;;;;;;5031477;28;20033;-54
2021/01/04 13:32:13;;;;;;;11.50;4.65;;;3.70;99.90;;;;;;5046389;28;20385;-59
2021/01/04 13:34:39;;;;;;;12.88;4.35;;;3.60;99.90;;;;;;5037226;28;20116;-66
2021/01/04 13:37:06;;;;;;;13.75;4.90;;;3.60;99.90;;;;;;5030439;28;20515;-61
2021/01/04 13:39:32;;;;;;;12.98;4.50;;;3.60;99.90;;;;;;5045586;28;20021;-62
2021/01/04 13:41:59;;;;;;;12.88;4.70;;;3.70;99.90;;;;;;5034357;28;20389;-60
2021/01/04 13:44:26;;;;;;;12.60;4.63;;;3.80;99.90;;;;;;5032024;28;20036;-58
2021/01/04 13:46:57;;;;;;;12.48;4.68;;;3.80;99.90;;;;;;5030471;28;20048;-59
2021/01/04 13:49:23;;;;;;;14.43;4.88;;;3.90;99.90;;;;;;5032891;28;20040;-59
2021/01/04 13:51:49;;;;;;;14.18;4.90;;;4.10;99.90;;;;;;5042395;28;20021;-56
2021/01/04 13:54:15;;;;;;;12.13;5.28;;;4.20;99.90;;;;;;5048709;28;20074;-56
2021/01/04 13:56:49;;;;;;;11.00;4.30;;;4.10;99.90;;;;;;5030272;28;20029;-60
2021/01/04 13:59:16;;;;;;;12.65;4.47;;;4.10;99.90;;;;;;5049028;28;20032;-58
2021/01/04 14:01:42;;;;;;;10.00;3.92;;;4.00;99.90;;;;;;5051532;28;20021;-57
2021/01/04 14:04:09;;;;;;;11.77;4.22;;;3.90;99.90;;;;;;5051510;28;20036;-60
2021/01/04 14:06:39;;;;;;;11.38;4.20;;;3.80;99.90;;;;;;5051059;28;20025;-56
2021/01/04 14:09:07;;;;;;;11.27;4.43;;;3.70;99.90;;;;;;5049833;28;20070;-59
2021/01/04 14:11:32;;;;;;;10.82;3.97;;;3.70;99.90;;;;;;5050108;28;20031;-60
2021/01/04 14:13:58;;;;;;;12.70;4.80;;;3.60;99.90;;;;;;5050963;28;20065;-59
2021/01/04 14:16:25;;;;;;;13.73;5.30;;;3.50;99.90;;;;;;5050883;28;20094;-61
2021/01/04 14:18:52;;;;;;;11.73;4.38;;;3.50;99.90;;;;;;5049830;28;20027;-58
2021/01/04 14:21:18;;;;;;;13.73;4.40;;;3.50;99.90;;;;;;5049557;28;20024;-60
2021/01/04 14:23:47;;;;;;;13.82;4.38;;;3.50;99.90;;;;;;5047969;28;20021;-57
2021/01/04 14:26:18;;;;;;;;;;;3.50;99.90;;;;;;5049731;28;20039;-59
2021/01/04 14:28:44;;;;;;;13.63;4.60;;;3.50;99.90;;;;;;5050372;28;19970;-57
2021/01/04 14:31:09;;;;;;;11.38;4.78;;;3.40;99.90;;;;;;5051090;28;20037;-59
2021/01/04 14:33:36;;;;;;;18.17;7.05;;;3.40;99.90;;;;;;5049808;28;20411;-60
2021/01/04 14:36:02;;;;;;;15.10;5.18;;;3.40;99.90;;;;;;5048015;28;20037;-59
2021/01/04 14:38:28;;;;;;;15.60;5.20;;;3.40;99.90;;;;;;5048584;28;20040;-59
2021/01/04 14:40:54;;;;;;;13.48;4.90;;;3.30;99.90;;;;;;5049389;28;20025;-60
2021/01/04 14:43:20;;;;;;;15.65;5.43;;;3.40;99.90;;;;;;5046367;28;20055;-59
2021/01/04 14:45:46;;;;;;;15.85;4.65;;;3.40;99.90;;;;;;5045214;28;20059;-59
2021/01/04 14:48:12;;;;;;;14.75;4.30;;;3.40;99.90;;;;;;5040917;28;20029;-59
2021/01/04 14:50:37;;;;;;;15.60;5.05;;;3.40;99.90;;;;;;5043752;28;20191;-55
2021/01/04 14:53:03;;;;;;;15.43;5.07;;;3.40;99.90;;;;;;5040872;28;20488;-61
2021/01/04 14:55:30;;;;;;;13.68;4.90;;;3.40;99.90;;;;;;5036332;28;20030;-60
2021/01/04 14:57:55;;;;;;;12.30;4.18;;;3.30;99.90;;;;;;5038512;28;20483;-59
2021/01/04 15:00:21;;;;;;;14.23;5.15;;;3.30;99.90;;;;;;5054016;28;20100;-59
2021/01/04 15:02:47;;;;;;;14.70;4.82;;;3.30;99.90;;;;;;5052963;28;20017;-57
2021/01/04 15:05:13;;;;;;;13.55;4.65;;;3.20;99.90;;;;;;5053986;28;20056;-60
2021/01/04 15:07:41;;;;;;;13.35;4.70;;;3.20;99.90;;;;;;5052860;28;20032;-57
2021/01/04 15:10:07;;;;;;;12.98;4.28;;;3.20;99.90;;;;;;5054260;28;20454;-61
2021/01/04 15:12:33;;;;;;;12.35;4.47;;;3.20;99.90;;;;;;5050008;28;20041;-57
2021/01/04 15:14:59;;;;;;;12.68;4.68;;;3.10;99.90;;;;;;5041827;28;20021;-61
2021/01/04 15:17:25;;;;;;;15.40;4.72;;;3.10;99.90;;;;;;5036520;28;20460;-60
2021/01/04 15:19:50;;;;;;;14.75;5.47;;;3.10;99.90;;;;;;5032969;28;20025;-60
2021/01/04 15:22:16;;;;;;;14.25;5.22;;;3.10;99.90;;;;;;5039279;28;20400;-57
2021/01/04 15:24:42;;;;;;;14.80;5.55;;;3.00;99.90;;;;;;5053035;28;20021;-57
2021/01/04 15:27:08;;;;;;;17.52;7.13;;;3.00;99.90;;;;;;5033095;28;20492;-58
2021/01/04 15:29:35;;;;;;;15.65;5.15;;;3.10;99.90;;;;;;5046078;28;20456;-57
2021/01/04 15:32:01;;;;;;;14.27;4.72;;;3.00;99.90;;;;;;5041764;28;20040;-58
2021/01/04 15:34:27;;;;;;;14.30;5.07;;;3.00;99.90;;;;;;5033270;28;20116;-59
2021/01/04 15:36:55;;;;;;;11.65;4.63;;;3.00;99.90;;;;;;5034162;28;20108;-58
2021/01/04 15:39:21;;;;;;;;;;;3.00;99.90;;;;;;5034319;28;20030;-55
2021/01/04 15:42:00;;;;;;;13.98;5.05;;;3.10;99.90;;;;;;5051696;28;19915;-59
2021/01/04 15:44:27;;;;;;;12.05;4.93;;;3.10;99.90;;;;;;5051395;28;20021;-56
2021/01/04 15:46:54;;;;;;;13.40;4.80;;;3.00;99.90;;;;;;5041638;28;20116;-57
2021/01/04 15:49:21;;;;;;;13.68;5.10;;;3.00;99.90;;;;;;5033777;28;20026;-56
2021/01/04 15:51:47;;;;;;;13.13;4.80;;;3.00;99.90;;;;;;5032832;28;20413;-59
2021/01/04 15:54:14;;;;;;;13.48;4.60;;;3.00;99.90;;;;;;5041629;28;20120;-59